Time;durP1;ratioP1;P1;durP2;ratioP2;P2;SDS_P1;SDS_P2;PMS_P1;PMS_P2;Temp;Humidity;BMP_temperature;BMP_pressure;BME280_temperature;BME280_humidity;BME280_pressure;Samples;Min_cycle;Max_cycle;Signal;HPM_P1;HPM_P2
2023/11/01 00:02:55;;;;;;;;;10.00;10.00;;;;;15.08;100.00;97939.56;6181479;28;96909;-63
2023/11/01 00:06:08;;;;;;;;;10.00;10.00;;;;;15.17;100.00;97942.53;6180780;28;98610;-63
2023/11/01 00:09:11;;;;;;;;;5.00;5.00;;;;;15.14;100.00;97943.91;6172458;28;96776;-63
2023/11/01 00:12:14;;;;;;;;;11.00;10.00;;;;;15.22;100.00;97947.94;6174348;28;96208;-63
2023/11/01 00:15:17;;;;;;;;;8.00;7.25;;;;;15.21;100.00;97950.94;6177975;28;96663;-63
2023/11/01 00:18:20;;;;;;;;;8.00;7.00;;;;;15.20;100.00;97946.59;6188145;28;96393;-64
2023/11/01 00:21:24;;;;;;;;;8.50;8.00;;;;;15.17;100.00;97956.09;6180182;28;97417;-63
2023/11/01 00:24:28;;;;;;;;;7.25;7.00;;;;;15.17;100.00;97950.66;6165094;28;96474;-63
2023/11/01 00:27:32;;;;;;;;;8.25;8.00;;;;;15.11;100.00;97951.75;6185375;28;96523;-63
2023/11/01 00:30:35;;;;;;;;;9.50;8.50;;;;;15.11;100.00;97959.91;6178673;28;96479;-63
2023/11/01 00:33:38;;;;;;;;;9.00;8.00;;;;;15.13;100.00;97965.88;6167683;28;96939;-63
2023/11/01 00:36:42;;;;;;;;;9.25;9.00;;;;;15.08;100.00;97968.59;6165342;28;96275;-62
2023/11/01 00:39:45;;;;;;;;;7.80;7.80;;;;;15.09;100.00;97973.78;6174811;28;97454;-63
2023/11/01 00:42:49;;;;;;;;;7.20;7.20;;;;;15.04;100.00;97973.78;6188525;28;96463;-63
2023/11/01 00:45:52;;;;;;;;;8.00;7.00;;;;;15.07;100.00;97978.66;6182932;28;96473;-63
2023/11/01 00:48:55;;;;;;;;;9.60;9.20;;;;;15.14;100.00;97976.47;6172979;28;96367;-64
2023/11/01 00:52:00;;;;;;;;;9.00;8.80;;;;;15.10;100.00;97983.50;6179770;28;96582;-63
2023/11/01 00:55:04;;;;;;;;;8.20;8.00;;;;;15.11;100.00;97984.34;6197963;28;96982;-64
2023/11/01 00:58:07;;;;;;;;;10.00;9.00;;;;;15.13;100.00;97993.03;6175188;28;96355;-63
2023/11/01 01:01:11;;;;;;;;;7.00;7.00;;;;;15.12;100.00;97992.22;6162816;28;96716;-63
2023/11/01 01:04:14;;;;;;;;;7.00;7.00;;;;;15.06;100.00;97982.44;6169904;28;96317;-63
2023/11/01 01:07:18;;;;;;;;;8.60;8.00;;;;;15.01;100.00;97982.44;6181485;28;96546;-63
2023/11/01 01:10:21;;;;;;;;;8.00;7.00;;;;;15.00;100.00;97991.66;6186689;28;96567;-63
2023/11/01 01:13:25;;;;;;;;;8.00;7.60;;;;;15.01;100.00;97989.75;6165719;28;96410;-63
2023/11/01 01:16:28;;;;;;;;;7.60;6.60;;;;;15.03;100.00;98003.91;6175980;28;99269;-64
2023/11/01 01:19:33;;;;;;;;;8.00;7.00;;;;;15.03;100.00;98004.72;6184290;28;97193;-63
2023/11/01 01:22:38;;;;;;;;;8.00;8.00;;;;;15.08;100.00;98001.19;6162723;28;98023;-63
2023/11/01 01:25:41;;;;;;;;;6.60;6.60;;;;;15.08;100.00;97999.28;6178856;28;97517;-63
2023/11/01 01:28:44;;;;;;;;;8.00;7.00;;;;;15.13;100.00;98018.28;6165999;28;96816;-63
2023/11/01 01:31:47;;;;;;;;;5.75;5.75;;;;;15.14;100.00;98009.06;6164779;28;96427;-63
2023/11/01 01:34:50;;;;;;;;;7.80;7.00;;;;;15.20;100.00;98009.84;6179926;28;97519;-63
2023/11/01 01:37:55;;;;;;;;;9.00;8.67;;;;;15.24;100.00;98007.41;6167074;28;96451;-63
2023/11/01 01:40:58;;;;;;;;;7.60;7.00;;;;;15.19;100.00;98016.38;6163874;28;96329;-63
2023/11/01 01:44:01;;;;;;;;;9.00;8.00;;;;;15.18;100.00;98007.41;6173598;28;96533;-63
2023/11/01 01:47:05;;;;;;;;;7.50;7.50;;;;;15.20;100.00;98009.06;6180246;28;96290;-63
2023/11/01 01:50:09;;;;;;;;;7.40;7.40;;;;;15.16;100.00;98004.16;6163069;28;96655;-63
2023/11/01 01:53:14;;;;;;;;;8.40;8.40;;;;;15.14;100.00;98005.53;6162545;28;96390;-63
2023/11/01 01:56:19;;;;;;;;;5.00;5.00;;;;;15.13;100.00;98014.75;6193145;28;96471;-68
2023/11/01 01:59:23;;;;;;;;;5.00;5.00;;;;;15.13;100.00;98002.00;6161909;28;96724;-68
2023/11/01 02:02:26;;;;;;;;;7.50;7.50;;;;;15.20;100.00;98009.06;6184932;28;96550;-63
2023/11/01 02:05:30;;;;;;;;;7.60;7.60;;;;;15.10;100.00;97999.81;6235344;22;97875;-68
2023/11/01 02:08:35;;;;;;;;;6.50;6.50;;;;;15.18;100.00;98018.28;6210892;28;96301;-68
2023/11/01 02:11:39;;;;;;;;;9.75;8.75;;;;;15.14;100.00;98030.78;6232768;28;96753;-69
2023/11/01 02:14:42;;;;;;;;;7.00;6.80;;;;;15.05;100.00;98015.31;6211541;28;96563;-67
2023/11/01 02:17:45;;;;;;;;;5.00;5.00;;;;;15.10;100.00;98032.38;6211879;28;96811;-68
2023/11/01 02:20:51;;;;;;;;;7.20;7.20;;;;;15.09;100.00;98028.06;6210817;28;96641;-69
2023/11/01 02:23:57;;;;;;;;;6.60;6.00;;;;;15.10;100.00;98032.38;6217096;28;96481;-69
2023/11/01 02:27:02;;;;;;;;;8.50;8.25;;;;;15.08;100.00;98033.75;6225172;28;96621;-69
2023/11/01 02:30:07;;;;;;;;;6.00;6.00;;;;;15.14;100.00;98041.63;6224978;28;96959;-69
2023/11/01 02:33:10;;;;;;;;;6.75;6.00;;;;;15.12;100.00;98027.50;6214912;28;98403;-69
2023/11/01 02:36:13;;;;;;;;;5.00;5.00;;;;;15.09;100.00;98032.69;6219778;27;97091;-69
2023/11/01 02:39:18;;;;;;;;;6.20;6.20;;;;;15.08;100.00;98037.28;6221708;28;96903;-67
2023/11/01 02:42:21;;;;;;;;;7.25;6.25;;;;;15.04;100.00;98043.53;6229442;28;96303;-68
2023/11/01 02:45:25;;;;;;;;;5.40;5.40;;;;;15.04;100.00;98041.63;6216106;28;97017;-68
2023/11/01 02:48:28;;;;;;;;;5.80;5.00;;;;;15.03;100.00;98042.72;6216122;28;97150;-67
2023/11/01 02:51:32;;;;;;;;;4.50;4.50;;;;;15.09;100.00;98040.81;6211241;28;96550;-68
2023/11/01 02:54:38;;;;;;;;;7.00;7.00;;;;;15.03;100.00;98039.19;6206025;28;97108;-68
2023/11/01 02:57:42;;;;;;;;;6.00;5.00;;;;;15.05;100.00;98040.53;6213590;28;96419;-68
2023/11/01 03:00:45;;;;;;;;;7.00;7.00;;;;;15.08;100.00;98034.56;6214365;28;96372;-68
2023/11/01 03:03:49;;;;;;;;;5.60;5.60;;;;;14.98;100.00;98025.59;6215872;28;97014;-67
2023/11/01 03:06:52;;;;;;;;;7.00;7.00;;;;;14.95;100.00;98018.00;6231455;27;96678;-68
2023/11/01 03:09:57;;;;;;;;;6.00;6.00;;;;;15.12;100.00;98046.50;6234241;28;96512;-67
2023/11/01 03:13:00;;;;;;;;;4.00;4.00;;;;;15.09;100.00;98057.09;6235932;28;96964;-68
2023/11/01 03:16:03;;;;;;;;;8.00;7.00;;;;;15.14;100.00;98051.69;6239575;28;96220;-68
2023/11/01 03:19:07;;;;;;;;;6.00;5.60;;;;;15.09;100.00;98038.91;6240254;28;97354;-70
2023/11/01 03:22:10;;;;;;;;;8.50;7.75;;;;;15.20;100.00;98058.72;6234437;28;96364;-69
2023/11/01 03:25:15;;;;;;;;;6.00;5.40;;;;;15.14;100.00;98052.50;6226783;28;96531;-70
2023/11/01 03:28:18;;;;;;;;;6.00;6.00;;;;;15.14;100.00;98062.53;6204368;28;99150;-68
2023/11/01 03:31:21;;;;;;;;;5.00;5.00;;;;;15.04;100.00;98049.78;6221172;28;96722;-68
2023/11/01 03:34:25;;;;;;;;;6.00;6.00;;;;;15.15;100.00;98067.69;6229785;28;96394;-69
2023/11/01 03:37:28;;;;;;;;;7.20;6.40;;;;;15.13;100.00;98075.28;6231589;28;97100;-68
2023/11/01 03:40:33;;;;;;;;;6.60;6.60;;;;;15.17;100.00;98075.56;6245127;28;96911;-69
2023/11/01 03:43:37;;;;;;;;;6.80;6.00;;;;;15.22;100.00;98082.88;6244030;28;96484;-68
2023/11/01 03:46:41;;;;;;;;;8.40;8.00;;;;;15.23;100.00;98076.38;6225318;28;96789;-68
2023/11/01 03:49:44;;;;;;;;;7.00;6.75;;;;;15.26;100.00;98078.53;6224467;28;96555;-68
2023/11/01 03:52:47;;;;;;;;;6.75;6.75;;;;;15.20;100.00;98077.72;6226535;28;96509;-69
2023/11/01 03:55:52;;;;;;;;;7.20;7.00;;;;;15.16;100.00;98076.63;6231677;28;96517;-69
2023/11/01 03:58:55;;;;;;;;;7.00;6.60;;;;;15.12;100.00;98073.66;6220562;28;97095;-69
2023/11/01 04:01:59;;;;;;;;;5.00;5.00;;;;;15.10;100.00;98075.03;6224261;28;97246;-69
2023/11/01 04:05:02;;;;;;;;;5.00;5.00;;;;;15.05;100.00;98077.75;6239224;28;96524;-68
2023/11/01 04:08:06;;;;;;;;;7.75;7.75;;;;;15.11;100.00;98082.06;6232845;28;96402;-69
2023/11/01 04:11:10;;;;;;;;;8.00;8.00;;;;;15.07;100.00;98089.13;6245286;28;96379;-68
2023/11/01 04:14:14;;;;;;;;;6.60;6.60;;;;;15.06;100.00;98095.63;6238738;28;97312;-69
2023/11/01 04:17:18;;;;;;;;;7.20;6.80;;;;;15.02;100.00;98097.25;6228808;28;96783;-68
2023/11/01 04:20:21;;;;;;;;;10.00;9.40;;;;;14.99;100.00;98101.34;6239159;28;98434;-69
2023/11/01 04:23:25;;;;;;;;;5.60;5.60;;;;;14.98;100.00;98110.56;6219930;28;96819;-69
2023/11/01 04:26:29;;;;;;;;;7.00;6.00;;;;;14.91;100.00;98107.28;6231101;28;96731;-67
2023/11/01 04:29:32;;;;;;;;;6.40;6.40;;;;;14.92;100.00;98100.78;6237519;27;96311;-68
2023/11/01 04:32:36;;;;;;;;;8.60;8.60;;;;;14.93;100.00;98104.31;6218747;28;98705;-67
2023/11/01 04:35:39;;;;;;;;;6.00;5.50;;;;;14.94;100.00;98114.91;6234743;28;96590;-67
2023/11/01 04:38:43;;;;;;;;;7.00;7.00;;;;;14.94;100.00;98120.31;6219640;28;96531;-68
2023/11/01 04:41:48;;;;;;;;;6.00;6.00;;;;;14.95;100.00;98113.81;6221490;28;96848;-67
2023/11/01 04:44:52;;;;;;;;;8.25;8.00;;;;;14.90;100.00;98104.84;6217461;28;96657;-67
2023/11/01 04:47:55;;;;;;;;;7.75;7.25;;;;;14.98;100.00;98107.84;6213035;28;97078;-67
2023/11/01 04:50:59;;;;;;;;;8.00;8.00;;;;;15.00;100.00;98126.59;6232675;28;96348;-67
2023/11/01 04:54:06;;;;;;;;;6.25;6.25;;;;;15.00;100.00;98130.09;6231299;27;96284;-67
2023/11/01 04:57:11;;;;;;;;;7.00;7.00;;;;;14.99;100.00;98128.47;6221252;28;98197;-67
2023/11/01 05:00:16;;;;;;;;;9.00;9.00;;;;;15.02;100.00;98129.84;6237143;28;96558;-68
2023/11/01 05:03:19;;;;;;;;;8.20;8.00;;;;;15.03;100.00;98126.84;6216548;28;98053;-68
2023/11/01 05:06:23;;;;;;;;;8.25;8.25;;;;;15.05;100.00;98129.31;6219746;28;96514;-67
2023/11/01 05:09:26;;;;;;;;;8.00;8.00;;;;;15.06;100.00;98128.22;6215992;27;96690;-67
2023/11/01 05:12:31;;;;;;;;;7.60;7.60;;;;;15.05;100.00;98130.09;6221306;28;96789;-67
2023/11/01 05:15:36;;;;;;;;;8.00;8.00;;;;;15.07;100.00;98130.66;6224699;28;96497;-68
2023/11/01 05:18:40;;;;;;;;;7.00;6.00;;;;;15.09;100.00;98133.13;6219758;28;96942;-68
2023/11/01 05:21:43;;;;;;;;;9.00;9.00;;;;;15.01;100.00;98134.44;6225846;27;97287;-67
2023/11/01 05:24:46;;;;;;;;;7.00;6.50;;;;;15.02;100.00;98133.38;6219293;28;97580;-67
2023/11/01 05:27:51;;;;;;;;;8.40;8.00;;;;;15.04;100.00;98141.25;6222079;28;96359;-69
2023/11/01 05:30:54;;;;;;;;;7.00;7.00;;;;;14.95;100.00;98138.25;6228781;28;96670;-69
2023/11/01 05:33:57;;;;;;;;;9.00;8.40;;;;;14.99;100.00;98146.66;6215428;28;96570;-69
2023/11/01 05:37:00;;;;;;;;;6.40;6.40;;;;;15.01;100.00;98148.00;6225101;28;96250;-65
2023/11/01 05:40:12;;;;;;;;;10.00;9.00;;;;;15.02;100.00;98152.38;6227103;28;96998;-65
2023/11/01 05:43:18;;;;;;;;;8.00;8.00;;;;;15.03;100.00;98155.91;6239877;28;96443;-66
2023/11/01 05:46:21;;;;;;;;;8.00;8.00;;;;;15.05;100.00;98164.59;6230173;28;96624;-65
2023/11/01 05:49:25;;;;;;;;;6.00;6.00;;;;;15.06;100.00;98164.31;6214953;28;97906;-66
2023/11/01 05:52:28;;;;;;;;;8.40;8.00;;;;;15.08;100.00;98170.31;6216779;28;96766;-63
2023/11/01 05:55:31;;;;;;;;;6.67;6.67;;;;;15.03;100.00;98164.84;6214664;28;96734;-67
2023/11/01 05:58:52;;;;;;;;;8.00;8.00;;;;;15.14;100.00;98187.44;6217785;28;98587;-65
2023/11/01 06:01:56;;;;;;;;;7.00;7.00;;;;;15.26;100.00;98184.44;6221459;27;96401;-67
2023/11/01 06:04:59;;;;;;;;;8.00;8.00;;;;;15.30;100.00;98194.50;6207772;28;98427;-66
2023/11/01 06:08:02;;;;;;;;;8.50;8.00;;;;;15.31;100.00;98201.56;6239532;28;97497;-64
2023/11/01 06:11:07;;;;;;;;;6.40;6.40;;;;;15.35;100.00;98208.09;6256307;27;96698;-64
2023/11/01 06:14:11;;;;;;;;;8.00;6.40;;;;;15.38;100.00;98204.03;6224143;28;96960;-64
2023/11/01 06:17:14;;;;;;;;;7.00;7.00;;;;;15.45;100.00;98208.09;6216320;28;96479;-64
2023/11/01 06:20:18;;;;;;;;;7.00;7.00;;;;;15.56;100.00;98209.78;6214829;28;96315;-64
2023/11/01 06:23:21;;;;;;;;;8.00;8.00;;;;;15.56;100.00;98220.66;6236484;28;96803;-64
2023/11/01 06:26:24;;;;;;;;;9.00;8.00;;;;;15.57;100.00;98225.00;6225674;28;96854;-64
2023/11/01 06:29:29;;;;;;;;;6.75;6.75;;;;;15.56;100.00;98231.53;6231401;28;98566;-63
2023/11/01 06:32:33;;;;;;;;;7.00;7.00;;;;;15.52;100.00;98226.91;6207555;28;98457;-64
2023/11/01 06:35:39;;;;;;;;;8.00;8.00;;;;;15.52;100.00;98225.00;6222834;28;96406;-64
2023/11/01 06:38:42;;;;;;;;;7.75;7.75;;;;;15.54;100.00;98224.75;6223148;28;99166;-66
2023/11/01 06:41:45;;;;;;;;;7.60;7.60;;;;;15.55;100.00;98229.88;6226748;28;96308;-64
2023/11/01 06:44:50;;;;;;;;;7.00;7.00;;;;;15.60;100.00;98231.78;6226899;28;97207;-65
2023/11/01 06:47:53;;;;;;;;;6.20;5.20;;;;;15.57;100.00;98227.72;6225650;27;96954;-66
2023/11/01 06:50:56;;;;;;;;;6.60;6.00;;;;;15.67;100.00;98235.06;6215266;28;97327;-64
2023/11/01 06:54:00;;;;;;;;;9.00;8.00;;;;;15.66;100.00;98233.44;6228493;28;97114;-63
2023/11/01 06:57:03;;;;;;;;;6.60;6.60;;;;;15.72;100.00;98232.38;6217332;28;97087;-67
2023/11/01 07:00:09;;;;;;;;;6.00;6.00;;;;;15.83;100.00;98233.19;6221422;27;96491;-65
2023/11/01 07:03:12;;;;;;;;;5.20;5.20;;;;;15.93;100.00;98236.69;6220639;28;97633;-64
2023/11/01 07:06:16;;;;;;;;;7.00;7.00;;;;;16.11;100.00;98234.53;6226371;27;96512;-65
2023/11/01 07:09:19;;;;;;;;;8.00;7.00;;;;;16.31;100.00;98238.06;6229986;27;96295;-65
2023/11/01 07:12:22;;;;;;;;;7.00;7.00;;;;;16.42;100.00;98244.28;6221442;28;96604;-64
2023/11/01 07:15:27;;;;;;;;;7.00;7.00;;;;;16.52;100.00;98251.63;6226005;28;98109;-66
2023/11/01 07:18:30;;;;;;;;;6.00;6.00;;;;;16.51;100.00;98245.38;6227200;28;98564;-65
2023/11/01 07:21:34;;;;;;;;;6.00;6.00;;;;;16.69;100.00;98238.53;6233272;28;97797;-66
2023/11/01 07:24:37;;;;;;;;;7.00;7.00;;;;;16.85;100.00;98238.22;6230093;28;97730;-64
2023/11/01 07:27:40;;;;;;;;;7.00;7.00;;;;;17.07;100.00;98229.69;6233154;28;96786;-64
2023/11/01 07:30:46;;;;;;;;;6.00;6.00;;;;;17.63;100.00;98218.50;6223693;28;98422;-64
2023/11/01 07:33:49;;;;;;;;;5.00;4.40;;;;;19.90;100.00;98236.97;6229259;28;96809;-64
2023/11/01 07:36:53;;;;;;;;;7.40;7.40;;;;;22.94;100.00;98238.59;6232156;28;96916;-64
2023/11/01 07:39:56;;;;;;;;;7.00;7.00;;;;;25.57;100.00;98238.94;6231352;28;97367;-65
2023/11/01 07:42:59;;;;;;;;;7.40;7.40;;;;;28.30;93.75;98249.00;6235488;27;96929;-66
2023/11/01 07:46:04;;;;;;;;;5.00;5.00;;;;;30.44;83.10;98248.25;6231134;28;98827;-66
2023/11/01 07:49:07;;;;;;;;;5.60;5.00;;;;;32.38;67.87;98248.97;6228148;28;96563;-66
2023/11/01 07:52:11;;;;;;;;;7.00;7.00;;;;;34.11;56.66;98246.84;6223961;27;97420;-65
2023/11/01 07:55:14;;;;;;;;;5.00;5.00;;;;;35.32;47.80;98248.78;6224513;28;98457;-67
2023/11/01 07:58:17;;;;;;;;;4.75;4.75;;;;;36.34;42.84;98249.78;6222328;28;96693;-67
2023/11/01 08:01:22;;;;;;;;;5.00;5.00;;;;;37.46;38.37;98253.06;6222330;28;96659;-66
2023/11/01 08:04:25;;;;;;;;;4.00;4.00;;;;;38.22;33.27;98249.06;6230725;28;96461;-67
2023/11/01 08:07:28;;;;;;;;;3.00;3.00;;;;;39.00;30.71;98250.81;6222881;28;96475;-66
2023/11/01 08:10:31;;;;;;;;;6.00;6.00;;;;;39.04;29.23;98242.34;6220690;28;97700;-68
2023/11/01 08:13:35;;;;;;;;;5.00;5.00;;;;;39.31;28.15;98255.16;6210963;28;98939;-68
2023/11/01 08:16:39;;;;;;;;;4.40;4.40;;;;;39.67;27.98;98244.09;6226537;27;96797;-67
2023/11/01 08:19:42;;;;;;;;;4.00;4.00;;;;;39.87;27.66;98249.78;6224480;28;96611;-67
2023/11/01 08:22:45;;;;;;;;;5.00;4.00;;;;;40.32;26.55;98254.97;6226886;28;96322;-67
2023/11/01 08:25:50;;;;;;;;;4.75;4.00;;;;;40.73;24.79;98246.78;6234755;28;96780;-67
2023/11/01 08:28:53;;;;;;;;;7.00;5.80;;;;;40.38;24.30;98259.66;6226395;28;98461;-66
2023/11/01 08:31:57;;;;;;;;;5.00;5.00;;;;;40.61;24.99;98259.56;6228134;28;96373;-67
2023/11/01 08:35:00;;;;;;;;;6.00;5.60;;;;;40.65;24.67;98263.13;6227316;28;97305;-68
2023/11/01 08:38:06;;;;;;;;;4.00;4.00;;;;;40.57;24.74;98263.66;6223077;28;96310;-68
2023/11/01 08:41:09;;;;;;;;;4.00;3.60;;;;;40.74;24.11;98264.56;6228440;28;96598;-69
2023/11/01 08:44:12;;;;;;;;;5.80;5.80;;;;;40.95;23.65;98270.53;6230900;28;96311;-67
2023/11/01 08:47:34;;;;;;;;;5.20;5.20;;;;;41.22;23.89;98272.31;6231439;28;98385;-67
2023/11/01 08:50:40;;;;;;;;;5.00;5.00;;;;;41.36;23.14;98269.94;6225414;28;96293;-67
2023/11/01 08:53:43;;;;;;;;;4.00;4.00;;;;;41.58;23.97;98275.88;6227307;28;96691;-66
2023/11/01 08:56:46;;;;;;;;;5.20;4.20;;;;;41.74;22.31;98275.84;6220972;28;96990;-69
2023/11/01 08:59:50;;;;;;;;;5.00;4.75;;;;;41.65;23.74;98272.84;6223354;28;96492;-68
2023/11/01 09:02:55;;;;;;;;;5.00;4.50;;;;;41.76;22.39;98264.88;6229750;28;96626;-68
2023/11/01 09:05:58;;;;;;;;;3.50;3.50;;;;;41.70;22.21;98263.81;6224631;28;97327;-69
2023/11/01 09:09:01;;;;;;;;;3.00;3.00;;;;;42.06;20.92;98274.19;6212664;28;96807;-69
2023/11/01 09:12:05;;;;;;;;;4.00;4.00;;;;;41.63;22.15;98271.72;6217127;28;99815;-69
2023/11/01 09:15:09;;;;;;;;;4.67;4.00;;;;;41.55;20.81;98273.91;6214473;27;97262;-69
2023/11/01 09:18:13;;;;;;;;;3.00;3.00;;;;;41.40;22.32;98264.97;6216249;28;96517;-70
2023/11/01 09:21:19;;;;;;;;;4.00;4.00;;;;;40.56;22.65;98273.41;6222948;28;97767;-70
2023/11/01 09:24:22;;;;;;;;;3.00;3.00;;;;;40.51;21.91;98279.56;6214573;28;96550;-70
2023/11/01 09:27:26;;;;;;;;;2.80;2.80;;;;;39.40;22.35;98271.56;6226096;28;96868;-70
2023/11/01 09:30:29;;;;;;;;;3.00;3.00;;;;;38.90;24.30;98280.78;6230315;28;96246;-69
2023/11/01 09:33:35;;;;;;;;;4.00;4.00;;;;;37.12;24.43;98275.44;6229986;28;98807;-70
2023/11/01 09:36:39;;;;;;;;;3.00;3.00;;;;;35.76;27.97;98267.97;6236342;28;96810;-71
2023/11/01 09:39:42;;;;;;;;;4.00;4.00;;;;;35.27;29.01;98263.19;6224185;27;96831;-70
2023/11/01 09:42:48;;;;;;;;;4.00;3.00;;;;;36.34;28.58;98264.59;6217597;28;96687;-72
2023/11/01 09:45:51;;;;;;;;;3.00;3.00;;;;;36.02;28.54;98253.47;6223226;28;96456;-71
2023/11/01 09:48:56;;;;;;;;;5.00;5.00;;;;;36.35;27.27;98254.19;6226139;27;96918;-71
2023/11/01 09:52:01;;;;;;;;;4.00;4.00;;;;;36.32;27.38;98243.75;6216790;27;97535;-71
2023/11/01 09:55:05;;;;;;;;;3.60;3.60;;;;;35.38;28.13;98263.19;6217741;28;96927;-71
2023/11/01 09:58:10;;;;;;;;;3.00;3.00;;;;;33.73;31.44;98260.22;6227530;28;96321;-70
2023/11/01 10:01:14;;;;;;;;;5.00;4.00;;;;;32.94;33.75;98255.16;6233023;28;96610;-69
2023/11/01 10:04:19;;;;;;;;;3.20;3.20;;;;;31.95;37.96;98251.22;6210565;28;97511;-70
2023/11/01 10:07:22;;;;;;;;;2.00;2.00;;;;;30.68;41.49;98244.34;6213209;28;96554;-69
2023/11/01 10:10:25;;;;;;;;;2.80;2.80;;;;;29.90;46.72;98239.19;6228650;28;96684;-69
2023/11/01 10:13:30;;;;;;;;;5.00;4.20;;;;;30.32;47.27;98233.69;6211739;28;96894;-71
2023/11/01 10:16:33;;;;;;;;;2.00;2.00;;;;;31.42;42.31;98244.84;6229718;28;96790;-69
2023/11/01 10:19:37;;;;;;;;;3.00;3.00;;;;;32.44;36.96;98230.72;6229460;28;96972;-70
2023/11/01 10:22:40;;;;;;;;;3.00;3.00;;;;;33.98;34.61;98237.19;6210167;28;96476;-70
2023/11/01 10:25:45;;;;;;;;;3.40;3.40;;;;;34.97;30.88;98237.53;6220483;28;96514;-71
2023/11/01 10:28:48;;;;;;;;;3.00;3.00;;;;;35.26;30.83;98241.16;6233685;27;96691;-71
2023/11/01 10:31:55;;;;;;;;;5.00;5.00;;;;;35.93;28.68;98230.66;6224127;28;96491;-71
2023/11/01 10:35:12;;;;;;;;;3.20;3.20;;;;;35.71;28.77;98225.53;6206906;28;98735;-71
2023/11/01 10:38:15;;;;;;;;;3.00;3.00;;;;;34.45;30.61;98239.00;6207447;28;97155;-71
2023/11/01 10:41:19;;;;;;;;;4.00;4.00;;;;;33.20;34.15;98240.25;6209032;28;98447;-69
2023/11/01 10:44:23;;;;;;;;;4.20;4.00;;;;;31.80;39.32;98229.91;6212672;28;96660;-70
2023/11/01 10:47:27;;;;;;;;;6.40;6.40;;;;;30.18;44.25;98228.66;6215543;28;96439;-69
2023/11/01 10:50:33;;;;;;;;;3.25;3.25;;;;;28.73;50.83;98236.34;6222482;28;96373;-69
2023/11/01 10:53:37;;;;;;;;;3.00;3.00;;;;;27.48;57.81;98226.34;6231851;28;96662;-70
2023/11/01 10:56:41;;;;;;;;;5.00;5.00;;;;;26.24;64.28;98224.16;6219809;28;98163;-69
2023/11/01 10:59:51;;;;;;;;;6.00;6.00;;;;;25.42;71.17;98229.28;6214674;28;97122;-70
2023/11/01 11:02:59;;;;;;;;;3.00;3.00;;;;;24.62;75.03;98226.75;6225951;28;97521;-69
2023/11/01 11:06:10;;;;;;;;;6.25;6.25;;;;;23.87;80.65;98219.88;6221744;28;96147;-71
2023/11/01 11:09:22;;;;;;;;;5.00;5.00;;;;;23.22;86.21;98223.50;6199639;28;98612;-70
2023/11/01 11:12:26;;;;;;;;;4.20;4.20;;;;;22.84;88.14;98223.22;6221371;28;96946;-71
2023/11/01 11:16:10;;;;;;;;;3.50;3.50;;;;;22.85;90.65;98222.09;6229018;28;96750;-70
2023/11/01 11:19:13;;;;;;;;;5.00;5.00;;;;;22.86;89.87;98218.22;6225075;28;96581;-71
2023/11/01 11:22:18;;;;;;;;;5.00;5.00;;;;;22.68;90.82;98219.22;6217469;28;96579;-70
2023/11/01 11:25:48;;;;;;;;;6.40;6.40;;;;;22.43;93.47;98226.25;6218985;28;96432;-68
2023/11/01 11:28:51;;;;;;;;;4.20;4.20;;;;;22.41;92.36;98220.25;6226678;27;96264;-68
2023/11/01 11:31:58;;;;;;;;;3.00;3.00;;;;;22.44;93.94;98216.84;6221640;27;96610;-68
2023/11/01 11:35:19;;;;;;;;;6.00;6.00;;;;;22.39;92.77;98222.47;6215960;28;96923;-68
2023/11/01 11:38:32;;;;;;;;;4.25;4.25;;;;;22.07;95.13;98223.59;6220520;28;96789;-69
2023/11/01 11:41:46;;;;;;;;;3.60;3.60;;;;;21.76;95.73;98219.91;6215094;28;97704;-68
2023/11/01 11:45:01;;;;;;;;;5.00;5.00;;;;;21.48;96.76;98208.22;6218801;28;96590;-69
2023/11/01 11:48:40;;;;;;;;;4.60;4.60;;;;;21.14;100.00;98208.69;6227498;28;96780;-68
2023/11/01 11:51:51;;;;;;;;;5.00;4.00;;;;;21.09;100.00;98222.47;6228886;28;96712;-68
2023/11/01 11:54:56;;;;;;;;;4.00;4.00;;;;;21.96;100.00;98223.03;6234221;27;96982;-69
2023/11/01 11:57:59;;;;;;;;;4.00;4.00;;;;;22.77;94.98;98220.13;6214752;28;96573;-67
2023/11/01 12:01:02;;;;;;;;;5.00;5.00;;;;;24.34;89.94;98220.78;6225195;28;96928;-67
2023/11/01 12:04:07;;;;;;;;;4.00;4.00;;;;;25.78;80.65;98206.66;6235133;28;97843;-66
2023/11/01 12:07:15;;;;;;;;;4.00;4.00;;;;;26.41;75.88;98210.13;6227012;28;96926;-70
2023/11/01 12:10:20;;;;;;;;;4.60;4.40;;;;;27.62;69.26;98205.81;6223100;28;98171;-71
2023/11/01 12:13:39;;;;;;;;;3.00;3.00;;;;;28.50;65.01;98202.00;6224863;27;97447;-68
2023/11/01 12:16:43;;;;;;;;;4.00;4.00;;;;;28.50;60.39;98200.03;6214772;28;96815;-67
2023/11/01 12:19:47;;;;;;;;;4.33;4.33;;;;;27.62;64.50;98200.28;6199634;28;98391;-67
2023/11/01 12:22:50;;;;;;;;;4.00;4.00;;;;;26.88;68.85;98195.97;6215043;28;96474;-68
2023/11/01 12:25:55;;;;;;;;;5.60;5.60;;;;;26.50;69.96;98196.22;6231526;28;96631;-67
2023/11/01 12:29:03;;;;;;;;;4.00;4.00;;;;;26.05;73.36;98196.97;6226987;28;98996;-68
2023/11/01 12:32:07;;;;;;;;;5.00;5.00;;;;;25.32;75.99;98188.28;6228239;28;96298;-67
2023/11/01 12:35:11;;;;;;;;;6.00;6.00;;;;;24.59;79.93;98195.94;6227521;28;98473;-66
2023/11/01 12:38:17;;;;;;;;;2.80;2.80;;;;;24.02;83.40;98180.81;6228985;27;96576;-66
2023/11/01 12:41:25;;;;;;;;;6.00;5.40;;;;;23.47;85.27;98186.19;6228021;28;96758;-65
2023/11/01 12:44:28;;;;;;;;;5.00;5.00;;;;;23.09;87.69;98186.75;6240883;28;96787;-65
2023/11/01 12:47:40;;;;;;;;;5.00;5.00;;;;;23.03;89.42;98178.97;6233287;28;98701;-66
2023/11/01 12:50:44;;;;;;;;;5.00;5.00;;;;;23.52;87.11;98180.53;6216256;28;98659;-67
2023/11/01 12:53:47;;;;;;;;;6.40;6.00;;;;;23.75;85.89;98188.28;6217196;28;97101;-67
2023/11/01 12:56:52;;;;;;;;;4.00;4.00;;;;;24.10;84.56;98191.81;6224009;28;96542;-68
2023/11/01 12:59:55;;;;;;;;;6.00;6.00;;;;;24.57;83.21;98181.69;6235854;28;96379;-68
2023/11/01 13:03:01;;;;;;;;;5.00;5.00;;;;;24.35;82.05;98189.34;6228663;28;96547;-67
2023/11/01 13:06:06;;;;;;;;;4.00;4.00;;;;;23.70;86.11;98188.44;6215162;28;98972;-67
2023/11/01 13:09:14;;;;;;;;;5.00;5.00;;;;;23.22;89.05;98182.25;6225090;28;96852;-66
2023/11/01 13:12:19;;;;;;;;;5.50;5.50;;;;;22.87;92.31;98186.88;6226985;28;96224;-66
2023/11/01 13:15:22;;;;;;;;;2.40;2.40;;;;;22.60;93.42;98184.28;6224736;28;96580;-67
2023/11/01 13:18:26;;;;;;;;;4.00;4.00;;;;;22.32;96.21;98184.50;6225942;28;96361;-66
2023/11/01 13:21:30;;;;;;;;;6.00;5.00;;;;;22.15;97.86;98181.63;6225884;28;96265;-68
2023/11/01 13:24:33;;;;;;;;;2.00;2.00;;;;;21.93;98.45;98177.00;6217713;28;96458;-66
2023/11/01 13:27:38;;;;;;;;;5.00;5.00;;;;;21.77;100.00;98178.47;6224673;28;96890;-67
2023/11/01 13:30:41;;;;;;;;;3.40;3.40;;;;;21.63;100.00;98174.97;6222537;28;97410;-67
2023/11/01 13:33:44;;;;;;;;;5.00;5.00;;;;;21.53;100.00;98181.50;6227654;28;96364;-67
2023/11/01 13:36:47;;;;;;;;;4.00;4.00;;;;;21.36;100.00;98178.59;6240054;28;96530;-66
2023/11/01 13:39:51;;;;;;;;;2.00;2.00;;;;;21.45;100.00;98184.97;6240560;28;96284;-67
2023/11/01 13:42:55;;;;;;;;;4.00;4.00;;;;;21.46;100.00;98174.81;6241102;27;96232;-67
2023/11/01 13:45:58;;;;;;;;;4.00;4.00;;;;;21.71;100.00;98185.19;6241242;28;96654;-66
2023/11/01 13:49:01;;;;;;;;;5.00;5.00;;;;;22.00;98.58;98171.03;6239364;28;98394;-66
2023/11/01 13:52:05;;;;;;;;;3.00;2.00;;;;;22.42;95.86;98178.75;6234204;28;96322;-66
2023/11/01 13:55:09;;;;;;;;;3.00;3.00;;;;;22.76;93.13;98169.03;6218897;28;98681;-67
2023/11/01 13:58:14;;;;;;;;;3.00;3.00;;;;;22.80;92.92;98154.34;6214106;28;97018;-68
2023/11/01 14:01:17;;;;;;;;;5.75;5.00;;;;;22.68;91.20;98167.84;6240611;27;97295;-68
2023/11/01 14:04:21;;;;;;;;;4.00;4.00;;;;;22.26;93.71;98173.94;6215467;28;96979;-67
2023/11/01 14:07:25;;;;;;;;;5.00;5.00;;;;;21.87;94.95;98175.47;6217020;28;96823;-67
2023/11/01 14:10:28;;;;;;;;;2.33;2.33;;;;;21.44;97.26;98163.34;6208504;28;97196;-67
2023/11/01 14:13:35;;;;;;;;;6.00;6.00;;;;;21.14;98.62;98168.41;6223670;28;97014;-67
2023/11/01 14:16:38;;;;;;;;;5.25;5.00;;;;;21.02;99.57;98172.75;6217922;28;96917;-67
2023/11/01 14:19:41;;;;;;;;;3.75;3.75;;;;;20.81;100.00;98163.34;6219388;28;97993;-68
2023/11/01 14:22:48;;;;;;;;;4.00;4.00;;;;;20.67;100.00;98158.66;6231083;28;96367;-67
2023/11/01 14:25:52;;;;;;;;;6.00;5.00;;;;;20.54;100.00;98161.41;6236113;28;98532;-67